sensor_id;sensor_type;location;lat;lon;timestamp;P1;durP1;ratioP1;P2;durP2;ratioP2
40373;SDS011;26079;45.958;12.492;2022-12-11T00:01:07;17.27;;;11.85;;
40373;SDS011;26079;45.958;12.492;2022-12-11T00:03:36;15.85;;;12.45;;
40373;SDS011;26079;45.958;12.492;2022-12-11T00:06:04;14.52;;;11.98;;
40373;SDS011;26079;45.958;12.492;2022-12-11T00:08:34;15.18;;;12.80;;
40373;SDS011;26079;45.958;12.492;2022-12-11T00:10:59;16.08;;;11.25;;
40373;SDS011;26079;45.958;12.492;2022-12-11T00:13:25;15.90;;;13.38;;
40373;SDS011;26079;45.958;12.492;2022-12-11T00:15:51;15.35;;;13.70;;
40373;SDS011;26079;45.958;12.492;2022-12-11T00:18:16;19.98;;;17.65;;
40373;SDS011;26079;45.958;12.492;2022-12-11T00:20:45;12.55;;;10.93;;
40373;SDS011;26079;45.958;12.492;2022-12-11T00:23:13;12.82;;;11.45;;
40373;SDS011;26079;45.958;12.492;2022-12-11T00:25:40;14.32;;;12.35;;
40373;SDS011;26079;45.958;12.492;2022-12-11T00:28:06;14.13;;;12.23;;
40373;SDS011;26079;45.958;12.492;2022-12-11T00:30:32;12.05;;;10.27;;
40373;SDS011;26079;45.958;12.492;2022-12-11T00:32:58;16.27;;;11.45;;
40373;SDS011;26079;45.958;12.492;2022-12-11T00:35:23;11.65;;;10.43;;
40373;SDS011;26079;45.958;12.492;2022-12-11T00:37:49;11.88;;;10.70;;
40373;SDS011;26079;45.958;12.492;2022-12-11T00:40:15;15.82;;;13.07;;
40373;SDS011;26079;45.958;12.492;2022-12-11T00:42:40;28.50;;;14.75;;
40373;SDS011;26079;45.958;12.492;2022-12-11T00:45:06;24.75;;;15.63;;
40373;SDS011;26079;45.958;12.492;2022-12-11T00:47:32;17.42;;;12.60;;
40373;SDS011;26079;45.958;12.492;2022-12-11T00:49:58;11.25;;;9.32;;
40373;SDS011;26079;45.958;12.492;2022-12-11T00:52:23;9.55;;;8.27;;
40373;SDS011;26079;45.958;12.492;2022-12-11T00:54:49;9.20;;;8.23;;
40373;SDS011;26079;45.958;12.492;2022-12-11T00:57:14;6.70;;;6.00;;
40373;SDS011;26079;45.958;12.492;2022-12-11T00:59:40;5.18;;;4.50;;
40373;SDS011;26079;45.958;12.492;2022-12-11T01:02:06;6.95;;;4.65;;
40373;SDS011;26079;45.958;12.492;2022-12-11T01:04:33;5.07;;;3.75;;
40373;SDS011;26079;45.958;12.492;2022-12-11T01:07:00;5.78;;;4.53;;
40373;SDS011;26079;45.958;12.492;2022-12-11T01:09:26;5.03;;;4.38;;
40373;SDS011;26079;45.958;12.492;2022-12-11T01:12:10;5.05;;;4.55;;
40373;SDS011;26079;45.958;12.492;2022-12-11T01:14:35;5.05;;;4.13;;
40373;SDS011;26079;45.958;12.492;2022-12-11T01:17:01;3.78;;;3.33;;
40373;SDS011;26079;45.958;12.492;2022-12-11T01:19:27;3.20;;;2.88;;
40373;SDS011;26079;45.958;12.492;2022-12-11T01:21:53;5.53;;;3.60;;
40373;SDS011;26079;45.958;12.492;2022-12-11T01:24:18;3.50;;;3.20;;
40373;SDS011;26079;45.958;12.492;2022-12-11T01:26:44;3.40;;;2.60;;
40373;SDS011;26079;45.958;12.492;2022-12-11T01:29:10;4.35;;;3.00;;
40373;SDS011;26079;45.958;12.492;2022-12-11T01:31:35;3.95;;;3.20;;
40373;SDS011;26079;45.958;12.492;2022-12-11T01:34:02;3.33;;;3.03;;
40373;SDS011;26079;45.958;12.492;2022-12-11T01:36:28;3.10;;;2.80;;
40373;SDS011;26079;45.958;12.492;2022-12-11T01:38:53;3.28;;;2.97;;
40373;SDS011;26079;45.958;12.492;2022-12-11T01:41:20;4.97;;;3.47;;
40373;SDS011;26079;45.958;12.492;2022-12-11T01:44:05;4.75;;;3.67;;
40373;SDS011;26079;45.958;12.492;2022-12-11T01:46:33;11.20;;;8.65;;
40373;SDS011;26079;45.958;12.492;2022-12-11T01:49:01;10.68;;;8.95;;
40373;SDS011;26079;45.958;12.492;2022-12-11T01:51:30;8.88;;;7.70;;
40373;SDS011;26079;45.958;12.492;2022-12-11T01:54:00;12.02;;;9.88;;
40373;SDS011;26079;45.958;12.492;2022-12-11T01:56:31;10.65;;;7.05;;
40373;SDS011;26079;45.958;12.492;2022-12-11T01:59:01;24.67;;;17.10;;
40373;SDS011;26079;45.958;12.492;2022-12-11T02:01:42;16.02;;;11.00;;
40373;SDS011;26079;45.958;12.492;2022-12-11T02:06:43;9.43;;;8.52;;
40373;SDS011;26079;45.958;12.492;2022-12-11T02:09:12;11.45;;;8.48;;
40373;SDS011;26079;45.958;12.492;2022-12-11T02:14:40;11.77;;;9.57;;
40373;SDS011;26079;45.958;12.492;2022-12-11T02:17:15;12.13;;;9.82;;
40373;SDS011;26079;45.958;12.492;2022-12-11T02:20:12;13.80;;;12.27;;
40373;SDS011;26079;45.958;12.492;2022-12-11T02:28:22;12.75;;;11.50;;
40373;SDS011;26079;45.958;12.492;2022-12-11T02:31:00;11.55;;;10.25;;
40373;SDS011;26079;45.958;12.492;2022-12-11T02:36:25;11.02;;;9.20;;
40373;SDS011;26079;45.958;12.492;2022-12-11T02:38:54;16.27;;;13.93;;
40373;SDS011;26079;45.958;12.492;2022-12-11T02:41:23;40.08;;;24.38;;
40373;SDS011;26079;45.958;12.492;2022-12-11T02:43:51;25.10;;;15.18;;
40373;SDS011;26079;45.958;12.492;2022-12-11T02:46:19;14.32;;;10.57;;
40373;SDS011;26079;45.958;12.492;2022-12-11T02:48:47;9.55;;;8.48;;
40373;SDS011;26079;45.958;12.492;2022-12-11T02:51:15;9.30;;;8.40;;
40373;SDS011;26079;45.958;12.492;2022-12-11T02:53:43;9.75;;;8.45;;
40373;SDS011;26079;45.958;12.492;2022-12-11T02:56:12;9.35;;;7.75;;
40373;SDS011;26079;45.958;12.492;2022-12-11T02:58:44;7.63;;;6.80;;
40373;SDS011;26079;45.958;12.492;2022-12-11T03:01:14;7.15;;;6.45;;
40373;SDS011;26079;45.958;12.492;2022-12-11T03:03:40;7.90;;;6.88;;
40373;SDS011;26079;45.958;12.492;2022-12-11T03:06:06;7.97;;;7.10;;
40373;SDS011;26079;45.958;12.492;2022-12-11T03:08:36;8.00;;;6.80;;
40373;SDS011;26079;45.958;12.492;2022-12-11T03:11:02;9.45;;;6.80;;
40373;SDS011;26079;45.958;12.492;2022-12-11T03:13:28;6.45;;;5.70;;
40373;SDS011;26079;45.958;12.492;2022-12-11T03:21:04;6.68;;;5.93;;
40373;SDS011;26079;45.958;12.492;2022-12-11T03:26:13;5.22;;;4.38;;
40373;SDS011;26079;45.958;12.492;2022-12-11T03:28:44;5.90;;;4.20;;
40373;SDS011;26079;45.958;12.492;2022-12-11T03:31:16;5.35;;;4.78;;
40373;SDS011;26079;45.958;12.492;2022-12-11T03:33:51;4.30;;;3.55;;
40373;SDS011;26079;45.958;12.492;2022-12-11T03:36:21;3.78;;;3.45;;
40373;SDS011;26079;45.958;12.492;2022-12-11T03:38:57;5.03;;;3.38;;
40373;SDS011;26079;45.958;12.492;2022-12-11T03:41:44;4.20;;;3.80;;
40373;SDS011;26079;45.958;12.492;2022-12-11T03:44:12;4.60;;;3.30;;
40373;SDS011;26079;45.958;12.492;2022-12-11T03:46:39;5.60;;;3.47;;
40373;SDS011;26079;45.958;12.492;2022-12-11T03:49:09;3.92;;;2.78;;
40373;SDS011;26079;45.958;12.492;2022-12-11T03:51:40;3.33;;;2.80;;
40373;SDS011;26079;45.958;12.492;2022-12-11T03:54:07;3.95;;;2.80;;
40373;SDS011;26079;45.958;12.492;2022-12-11T03:56:33;3.17;;;2.80;;
40373;SDS011;26079;45.958;12.492;2022-12-11T03:59:01;2.83;;;2.63;;
40373;SDS011;26079;45.958;12.492;2022-12-11T04:01:26;3.75;;;2.70;;
40373;SDS011;26079;45.958;12.492;2022-12-11T04:03:52;3.15;;;2.80;;
40373;SDS011;26079;45.958;12.492;2022-12-11T04:06:18;2.70;;;2.45;;
40373;SDS011;26079;45.958;12.492;2022-12-11T04:08:43;2.95;;;2.72;;
40373;SDS011;26079;45.958;12.492;2022-12-11T04:11:09;3.28;;;2.97;;
40373;SDS011;26079;45.958;12.492;2022-12-11T04:13:54;2.60;;;2.40;;
40373;SDS011;26079;45.958;12.492;2022-12-11T04:16:38;4.72;;;2.97;;
40373;SDS011;26079;45.958;12.492;2022-12-11T04:19:04;2.92;;;2.63;;
40373;SDS011;26079;45.958;12.492;2022-12-11T04:21:48;2.40;;;2.20;;
40373;SDS011;26079;45.958;12.492;2022-12-11T04:24:32;3.40;;;2.00;;
40373;SDS011;26079;45.958;12.492;2022-12-11T04:26:58;2.05;;;1.63;;
40373;SDS011;26079;45.958;12.492;2022-12-11T04:29:24;3.20;;;2.70;;
40373;SDS011;26079;45.958;12.492;2022-12-11T04:31:49;1.05;;;1.05;;
40373;SDS011;26079;45.958;12.492;2022-12-11T04:34:15;2.35;;;1.40;;
40373;SDS011;26079;45.958;12.492;2022-12-11T04:36:41;2.22;;;2.00;;
40373;SDS011;26079;45.958;12.492;2022-12-11T04:39:07;1.85;;;1.13;;
40373;SDS011;26079;45.958;12.492;2022-12-11T04:41:33;1.30;;;1.20;;
40373;SDS011;26079;45.958;12.492;2022-12-11T04:43:59;1.55;;;1.33;;
40373;SDS011;26079;45.958;12.492;2022-12-11T04:46:25;1.58;;;1.30;;
40373;SDS011;26079;45.958;12.492;2022-12-11T04:48:51;3.15;;;1.95;;
40373;SDS011;26079;45.958;12.492;2022-12-11T04:51:17;2.25;;;2.05;;
40373;SDS011;26079;45.958;12.492;2022-12-11T04:53:44;1.80;;;1.70;;
40373;SDS011;26079;45.958;12.492;2022-12-11T04:56:11;3.03;;;1.77;;
40373;SDS011;26079;45.958;12.492;2022-12-11T04:58:39;2.63;;;1.92;;
40373;SDS011;26079;45.958;12.492;2022-12-11T05:01:08;1.60;;;1.50;;
40373;SDS011;26079;45.958;12.492;2022-12-11T05:03:35;3.08;;;2.20;;
40373;SDS011;26079;45.958;12.492;2022-12-11T05:06:01;3.72;;;1.83;;
40373;SDS011;26079;45.958;12.492;2022-12-11T05:08:27;2.20;;;1.67;;
40373;SDS011;26079;45.958;12.492;2022-12-11T05:11:00;2.80;;;2.25;;
40373;SDS011;26079;45.958;12.492;2022-12-11T05:13:28;3.78;;;1.83;;
40373;SDS011;26079;45.958;12.492;2022-12-11T05:15:54;3.30;;;1.90;;
40373;SDS011;26079;45.958;12.492;2022-12-11T05:18:20;3.65;;;2.53;;
40373;SDS011;26079;45.958;12.492;2022-12-11T05:21:06;2.88;;;2.00;;
40373;SDS011;26079;45.958;12.492;2022-12-11T05:23:33;2.20;;;2.00;;
40373;SDS011;26079;45.958;12.492;2022-12-11T05:26:00;1.83;;;1.73;;
40373;SDS011;26079;45.958;12.492;2022-12-11T05:28:28;3.03;;;1.98;;
40373;SDS011;26079;45.958;12.492;2022-12-11T05:30:59;2.13;;;1.92;;
40373;SDS011;26079;45.958;12.492;2022-12-11T05:33:26;2.30;;;2.00;;
40373;SDS011;26079;45.958;12.492;2022-12-11T05:35:53;2.10;;;1.90;;
40373;SDS011;26079;45.958;12.492;2022-12-11T05:38:19;2.67;;;2.10;;
40373;SDS011;26079;45.958;12.492;2022-12-11T05:40:54;2.08;;;1.88;;
40373;SDS011;26079;45.958;12.492;2022-12-11T05:43:28;4.22;;;1.83;;
40373;SDS011;26079;45.958;12.492;2022-12-11T05:45:55;1.77;;;1.65;;
40373;SDS011;26079;45.958;12.492;2022-12-11T05:48:28;2.85;;;2.20;;
40373;SDS011;26079;45.958;12.492;2022-12-11T05:50:57;3.22;;;2.92;;
40373;SDS011;26079;45.958;12.492;2022-12-11T05:53:24;1.80;;;1.70;;
40373;SDS011;26079;45.958;12.492;2022-12-11T05:55:51;2.65;;;1.55;;
40373;SDS011;26079;45.958;12.492;2022-12-11T05:58:17;1.27;;;1.17;;
40373;SDS011;26079;45.958;12.492;2022-12-11T06:00:43;3.25;;;1.40;;
40373;SDS011;26079;45.958;12.492;2022-12-11T06:03:08;1.20;;;1.10;;
40373;SDS011;26079;45.958;12.492;2022-12-11T06:05:38;1.75;;;1.23;;
40373;SDS011;26079;45.958;12.492;2022-12-11T06:08:05;0.85;;;0.70;;
40373;SDS011;26079;45.958;12.492;2022-12-11T06:10:30;1.35;;;1.15;;
40373;SDS011;26079;45.958;12.492;2022-12-11T06:12:56;1.20;;;1.10;;
40373;SDS011;26079;45.958;12.492;2022-12-11T06:15:22;0.80;;;0.80;;
40373;SDS011;26079;45.958;12.492;2022-12-11T06:17:48;1.55;;;1.45;;
40373;SDS011;26079;45.958;12.492;2022-12-11T06:20:14;2.45;;;1.38;;
40373;SDS011;26079;45.958;12.492;2022-12-11T06:22:39;0.70;;;0.70;;
40373;SDS011;26079;45.958;12.492;2022-12-11T06:25:05;1.58;;;1.48;;
40373;SDS011;26079;45.958;12.492;2022-12-11T06:27:31;1.98;;;1.83;;
40373;SDS011;26079;45.958;12.492;2022-12-11T06:29:57;1.40;;;1.30;;
40373;SDS011;26079;45.958;12.492;2022-12-11T06:32:23;1.88;;;1.08;;
40373;SDS011;26079;45.958;12.492;2022-12-11T06:34:49;1.67;;;1.25;;
40373;SDS011;26079;45.958;12.492;2022-12-11T06:37:14;1.33;;;1.08;;
40373;SDS011;26079;45.958;12.492;2022-12-11T06:39:40;1.10;;;1.02;;
40373;SDS011;26079;45.958;12.492;2022-12-11T06:42:06;1.60;;;1.50;;
40373;SDS011;26079;45.958;12.492;2022-12-11T06:44:31;1.40;;;1.30;;
40373;SDS011;26079;45.958;12.492;2022-12-11T06:46:57;4.57;;;1.67;;
40373;SDS011;26079;45.958;12.492;2022-12-11T06:49:23;2.78;;;2.42;;
40373;SDS011;26079;45.958;12.492;2022-12-11T06:51:48;3.17;;;2.90;;
40373;SDS011;26079;45.958;12.492;2022-12-11T06:54:14;11.40;;;9.43;;
40373;SDS011;26079;45.958;12.492;2022-12-11T06:56:40;2.55;;;2.35;;
40373;SDS011;26079;45.958;12.492;2022-12-11T06:59:05;2.38;;;1.88;;
40373;SDS011;26079;45.958;12.492;2022-12-11T07:01:34;2.78;;;2.40;;
40373;SDS011;26079;45.958;12.492;2022-12-11T07:07:10;2.30;;;2.10;;
40373;SDS011;26079;45.958;12.492;2022-12-11T07:09:37;6.13;;;3.10;;
40373;SDS011;26079;45.958;12.492;2022-12-11T07:12:04;9.80;;;6.70;;
40373;SDS011;26079;45.958;12.492;2022-12-11T07:14:31;10.65;;;9.23;;
40373;SDS011;26079;45.958;12.492;2022-12-11T07:16:57;6.28;;;5.68;;
40373;SDS011;26079;45.958;12.492;2022-12-11T07:19:23;5.82;;;4.80;;
40373;SDS011;26079;45.958;12.492;2022-12-11T07:21:49;4.25;;;3.70;;
40373;SDS011;26079;45.958;12.492;2022-12-11T07:24:15;3.10;;;2.80;;
40373;SDS011;26079;45.958;12.492;2022-12-11T07:26:41;3.70;;;2.97;;
40373;SDS011;26079;45.958;12.492;2022-12-11T07:29:06;3.80;;;3.42;;
40373;SDS011;26079;45.958;12.492;2022-12-11T07:31:32;4.13;;;3.58;;
40373;SDS011;26079;45.958;12.492;2022-12-11T07:33:59;5.65;;;4.38;;
40373;SDS011;26079;45.958;12.492;2022-12-11T07:36:30;5.10;;;4.35;;
40373;SDS011;26079;45.958;12.492;2022-12-11T07:38:56;4.35;;;3.95;;
40373;SDS011;26079;45.958;12.492;2022-12-11T07:41:23;12.15;;;6.40;;
40373;SDS011;26079;45.958;12.492;2022-12-11T07:43:48;4.93;;;4.07;;
40373;SDS011;26079;45.958;12.492;2022-12-11T07:46:15;6.65;;;5.47;;
40373;SDS011;26079;45.958;12.492;2022-12-11T07:48:43;4.78;;;4.25;;
40373;SDS011;26079;45.958;12.492;2022-12-11T07:51:12;4.85;;;4.30;;
40373;SDS011;26079;45.958;12.492;2022-12-11T07:53:48;3.35;;;2.97;;
40373;SDS011;26079;45.958;12.492;2022-12-11T07:56:15;4.30;;;2.95;;
40373;SDS011;26079;45.958;12.492;2022-12-11T07:58:41;3.78;;;2.45;;
40373;SDS011;26079;45.958;12.492;2022-12-11T08:01:11;4.43;;;3.92;;
40373;SDS011;26079;45.958;12.492;2022-12-11T08:03:39;5.10;;;4.63;;
40373;SDS011;26079;45.958;12.492;2022-12-11T08:06:06;4.35;;;3.83;;
40373;SDS011;26079;45.958;12.492;2022-12-11T08:08:32;3.60;;;2.97;;
40373;SDS011;26079;45.958;12.492;2022-12-11T08:11:04;3.78;;;2.92;;
40373;SDS011;26079;45.958;12.492;2022-12-11T08:15:57;2.60;;;2.15;;
40373;SDS011;26079;45.958;12.492;2022-12-11T08:18:23;6.18;;;2.28;;
40373;SDS011;26079;45.958;12.492;2022-12-11T08:20:49;1.75;;;1.65;;
40373;SDS011;26079;45.958;12.492;2022-12-11T08:23:15;2.53;;;2.22;;
40373;SDS011;26079;45.958;12.492;2022-12-11T08:25:41;2.42;;;2.10;;
40373;SDS011;26079;45.958;12.492;2022-12-11T08:28:06;13.43;;;7.10;;
40373;SDS011;26079;45.958;12.492;2022-12-11T08:30:32;9.05;;;4.97;;
40373;SDS011;26079;45.958;12.492;2022-12-11T08:32:58;6.95;;;4.68;;
40373;SDS011;26079;45.958;12.492;2022-12-11T08:35:24;2.00;;;1.75;;
40373;SDS011;26079;45.958;12.492;2022-12-11T08:37:50;4.07;;;3.00;;
40373;SDS011;26079;45.958;12.492;2022-12-11T08:40:16;3.72;;;1.70;;
40373;SDS011;26079;45.958;12.492;2022-12-11T08:42:41;1.63;;;1.48;;
40373;SDS011;26079;45.958;12.492;2022-12-11T08:45:07;1.65;;;1.55;;
40373;SDS011;26079;45.958;12.492;2022-12-11T08:47:34;2.03;;;1.45;;
40373;SDS011;26079;45.958;12.492;2022-12-11T08:49:59;1.95;;;1.70;;
40373;SDS011;26079;45.958;12.492;2022-12-11T08:52:25;3.38;;;2.63;;
40373;SDS011;26079;45.958;12.492;2022-12-11T08:54:51;5.10;;;4.05;;
40373;SDS011;26079;45.958;12.492;2022-12-11T08:57:16;9.07;;;6.32;;
40373;SDS011;26079;45.958;12.492;2022-12-11T08:59:42;6.90;;;5.82;;
40373;SDS011;26079;45.958;12.492;2022-12-11T09:02:11;18.48;;;12.88;;
40373;SDS011;26079;45.958;12.492;2022-12-11T09:04:37;5.32;;;4.80;;
40373;SDS011;26079;45.958;12.492;2022-12-11T09:07:03;7.55;;;5.75;;
40373;SDS011;26079;45.958;12.492;2022-12-11T09:09:28;3.30;;;3.00;;
40373;SDS011;26079;45.958;12.492;2022-12-11T09:11:54;8.98;;;5.70;;
40373;SDS011;26079;45.958;12.492;2022-12-11T09:14:20;5.47;;;3.90;;
40373;SDS011;26079;45.958;12.492;2022-12-11T09:16:46;3.85;;;2.28;;
40373;SDS011;26079;45.958;12.492;2022-12-11T09:19:12;3.22;;;2.22;;
40373;SDS011;26079;45.958;12.492;2022-12-11T09:21:39;3.53;;;2.55;;
40373;SDS011;26079;45.958;12.492;2022-12-11T09:24:07;3.08;;;2.10;;
40373;SDS011;26079;45.958;12.492;2022-12-11T09:26:34;3.38;;;1.88;;
40373;SDS011;26079;45.958;12.492;2022-12-11T09:29:01;3.38;;;2.25;;
40373;SDS011;26079;45.958;12.492;2022-12-11T09:31:29;1.35;;;1.10;;
40373;SDS011;26079;45.958;12.492;2022-12-11T09:33:58;1.33;;;1.23;;
40373;SDS011;26079;45.958;12.492;2022-12-11T09:36:28;1.65;;;1.50;;
40373;SDS011;26079;45.958;12.492;2022-12-11T09:38:58;2.75;;;1.92;;
40373;SDS011;26079;45.958;12.492;2022-12-11T09:41:28;3.50;;;2.67;;
40373;SDS011;26079;45.958;12.492;2022-12-11T09:46:45;1.98;;;1.75;;
40373;SDS011;26079;45.958;12.492;2022-12-11T09:54:59;2.90;;;2.60;;
40373;SDS011;26079;45.958;12.492;2022-12-11T09:57:37;4.38;;;3.25;;
40373;SDS011;26079;45.958;12.492;2022-12-11T10:00:15;3.60;;;3.30;;
40373;SDS011;26079;45.958;12.492;2022-12-11T10:05:28;3.75;;;3.38;;
40373;SDS011;26079;45.958;12.492;2022-12-11T10:07:58;7.90;;;6.80;;
40373;SDS011;26079;45.958;12.492;2022-12-11T10:19:19;5.05;;;4.47;;
40373;SDS011;26079;45.958;12.492;2022-12-11T10:21:49;3.50;;;3.20;;
40373;SDS011;26079;45.958;12.492;2022-12-11T10:26:48;6.43;;;4.75;;
40373;SDS011;26079;45.958;12.492;2022-12-11T10:29:19;3.83;;;2.85;;
40373;SDS011;26079;45.958;12.492;2022-12-11T10:36:50;1.00;;;0.80;;
40373;SDS011;26079;45.958;12.492;2022-12-11T10:39:18;1.73;;;1.58;;
40373;SDS011;26079;45.958;12.492;2022-12-11T10:41:46;1.50;;;1.40;;
40373;SDS011;26079;45.958;12.492;2022-12-11T10:46:43;2.10;;;1.73;;
40373;SDS011;26079;45.958;12.492;2022-12-11T10:49:21;2.33;;;1.83;;
40373;SDS011;26079;45.958;12.492;2022-12-11T10:51:55;3.00;;;2.45;;
40373;SDS011;26079;45.958;12.492;2022-12-11T10:57:12;2.50;;;2.30;;
40373;SDS011;26079;45.958;12.492;2022-12-11T10:59:43;7.28;;;4.30;;
40373;SDS011;26079;45.958;12.492;2022-12-11T11:02:28;3.17;;;2.60;;
40373;SDS011;26079;45.958;12.492;2022-12-11T11:04:57;4.82;;;3.38;;
40373;SDS011;26079;45.958;12.492;2022-12-11T11:07:28;5.20;;;4.47;;
40373;SDS011;26079;45.958;12.492;2022-12-11T11:12:38;10.88;;;8.18;;
40373;SDS011;26079;45.958;12.492;2022-12-11T11:15:10;5.68;;;4.05;;
40373;SDS011;26079;45.958;12.492;2022-12-11T11:17:41;8.00;;;6.15;;
40373;SDS011;26079;45.958;12.492;2022-12-11T11:20:13;11.48;;;8.60;;
40373;SDS011;26079;45.958;12.492;2022-12-11T11:22:43;8.55;;;6.75;;
40373;SDS011;26079;45.958;12.492;2022-12-11T11:25:15;11.63;;;9.50;;
40373;SDS011;26079;45.958;12.492;2022-12-11T11:27:51;5.45;;;4.55;;
40373;SDS011;26079;45.958;12.492;2022-12-11T11:30:29;6.50;;;5.30;;
40373;SDS011;26079;45.958;12.492;2022-12-11T11:33:14;7.65;;;5.78;;
40373;SDS011;26079;45.958;12.492;2022-12-11T11:35:53;4.90;;;3.50;;
40373;SDS011;26079;45.958;12.492;2022-12-11T11:38:30;10.80;;;6.53;;
40373;SDS011;26079;45.958;12.492;2022-12-11T11:43:49;3.22;;;2.90;;
40373;SDS011;26079;45.958;12.492;2022-12-11T11:51:46;5.90;;;5.05;;
40373;SDS011;26079;45.958;12.492;2022-12-11T11:54:29;7.50;;;5.50;;
40373;SDS011;26079;45.958;12.492;2022-12-11T11:57:00;9.65;;;6.72;;
40373;SDS011;26079;45.958;12.492;2022-12-11T11:59:40;14.88;;;8.10;;
40373;SDS011;26079;45.958;12.492;2022-12-11T12:02:15;5.20;;;4.70;;
40373;SDS011;26079;45.958;12.492;2022-12-11T12:04:43;14.40;;;8.18;;
40373;SDS011;26079;45.958;12.492;2022-12-11T12:13:05;12.32;;;7.75;;
40373;SDS011;26079;45.958;12.492;2022-12-11T12:15:49;4.10;;;3.05;;
40373;SDS011;26079;45.958;12.492;2022-12-11T12:20:59;10.30;;;4.80;;
40373;SDS011;26079;45.958;12.492;2022-12-11T12:37:04;5.00;;;3.90;;
40373;SDS011;26079;45.958;12.492;2022-12-11T12:42:55;3.33;;;1.80;;
40373;SDS011;26079;45.958;12.492;2022-12-11T12:48:13;3.00;;;2.60;;
40373;SDS011;26079;45.958;12.492;2022-12-11T12:50:42;4.05;;;2.50;;
40373;SDS011;26079;45.958;12.492;2022-12-11T12:53:15;2.17;;;1.70;;
40373;SDS011;26079;45.958;12.492;2022-12-11T12:55:44;6.70;;;4.07;;
40373;SDS011;26079;45.958;12.492;2022-12-11T12:58:25;12.20;;;6.82;;
40373;SDS011;26079;45.958;12.492;2022-12-11T13:01:13;4.03;;;2.92;;
40373;SDS011;26079;45.958;12.492;2022-12-11T13:04:03;2.57;;;2.37;;
40373;SDS011;26079;45.958;12.492;2022-12-11T13:06:37;4.65;;;2.95;;
40373;SDS011;26079;45.958;12.492;2022-12-11T13:09:14;3.42;;;2.95;;
40373;SDS011;26079;45.958;12.492;2022-12-11T13:11:47;3.60;;;2.80;;
40373;SDS011;26079;45.958;12.492;2022-12-11T13:16:44;3.58;;;2.80;;
40373;SDS011;26079;45.958;12.492;2022-12-11T13:30:34;3.33;;;2.42;;
40373;SDS011;26079;45.958;12.492;2022-12-11T13:33:01;3.67;;;3.28;;
40373;SDS011;26079;45.958;12.492;2022-12-11T13:35:46;4.85;;;3.38;;
40373;SDS011;26079;45.958;12.492;2022-12-11T13:38:17;5.40;;;3.22;;
40373;SDS011;26079;45.958;12.492;2022-12-11T13:40:45;3.70;;;2.80;;
40373;SDS011;26079;45.958;12.492;2022-12-11T13:43:18;3.88;;;3.13;;
40373;SDS011;26079;45.958;12.492;2022-12-11T13:45:48;4.47;;;4.00;;
40373;SDS011;26079;45.958;12.492;2022-12-11T13:48:23;4.35;;;3.92;;
40373;SDS011;26079;45.958;12.492;2022-12-11T13:50:53;3.75;;;3.28;;
40373;SDS011;26079;45.958;12.492;2022-12-11T13:53:21;7.10;;;4.68;;
40373;SDS011;26079;45.958;12.492;2022-12-11T13:55:54;8.85;;;5.40;;
40373;SDS011;26079;45.958;12.492;2022-12-11T13:58:22;4.55;;;3.13;;
40373;SDS011;26079;45.958;12.492;2022-12-11T14:01:31;4.85;;;3.70;;
40373;SDS011;26079;45.958;12.492;2022-12-11T14:04:03;12.82;;;8.63;;
40373;SDS011;26079;45.958;12.492;2022-12-11T14:06:33;4.38;;;2.72;;
40373;SDS011;26079;45.958;12.492;2022-12-11T14:09:01;3.95;;;3.38;;
40373;SDS011;26079;45.958;12.492;2022-12-11T14:11:36;3.20;;;2.67;;
40373;SDS011;26079;45.958;12.492;2022-12-11T14:14:07;10.07;;;7.45;;
40373;SDS011;26079;45.958;12.492;2022-12-11T14:17:03;7.07;;;5.90;;
40373;SDS011;26079;45.958;12.492;2022-12-11T14:19:28;8.93;;;5.70;;
40373;SDS011;26079;45.958;12.492;2022-12-11T14:21:59;8.20;;;5.28;;
40373;SDS011;26079;45.958;12.492;2022-12-11T14:24:26;9.25;;;6.63;;
40373;SDS011;26079;45.958;12.492;2022-12-11T14:26:54;17.90;;;9.73;;
40373;SDS011;26079;45.958;12.492;2022-12-11T14:29:27;14.02;;;7.18;;
40373;SDS011;26079;45.958;12.492;2022-12-11T14:31:55;4.57;;;3.67;;
40373;SDS011;26079;45.958;12.492;2022-12-11T14:34:27;3.67;;;3.20;;
40373;SDS011;26079;45.958;12.492;2022-12-11T14:36:57;7.72;;;5.13;;
40373;SDS011;26079;45.958;12.492;2022-12-11T14:39:29;4.95;;;3.60;;
40373;SDS011;26079;45.958;12.492;2022-12-11T14:42:11;3.50;;;2.95;;
40373;SDS011;26079;45.958;12.492;2022-12-11T14:44:54;5.07;;;3.30;;
40373;SDS011;26079;45.958;12.492;2022-12-11T14:47:28;3.60;;;2.67;;
40373;SDS011;26079;45.958;12.492;2022-12-11T14:50:14;4.28;;;3.85;;
40373;SDS011;26079;45.958;12.492;2022-12-11T14:52:46;8.88;;;6.10;;
40373;SDS011;26079;45.958;12.492;2022-12-11T14:55:26;10.63;;;6.25;;
40373;SDS011;26079;45.958;12.492;2022-12-11T14:58:00;6.65;;;5.38;;
40373;SDS011;26079;45.958;12.492;2022-12-11T15:00:29;11.25;;;8.30;;
40373;SDS011;26079;45.958;12.492;2022-12-11T15:03:01;9.20;;;6.15;;
40373;SDS011;26079;45.958;12.492;2022-12-11T15:05:32;17.45;;;10.43;;
40373;SDS011;26079;45.958;12.492;2022-12-11T15:10:40;10.90;;;6.47;;
40373;SDS011;26079;45.958;12.492;2022-12-11T15:13:21;6.38;;;5.70;;
40373;SDS011;26079;45.958;12.492;2022-12-11T15:15:47;6.57;;;5.95;;
40373;SDS011;26079;45.958;12.492;2022-12-11T15:18:19;7.93;;;6.18;;
40373;SDS011;26079;45.958;12.492;2022-12-11T15:20:49;7.25;;;6.03;;
40373;SDS011;26079;45.958;12.492;2022-12-11T15:23:16;7.05;;;5.95;;
40373;SDS011;26079;45.958;12.492;2022-12-11T15:25:48;5.45;;;4.15;;
40373;SDS011;26079;45.958;12.492;2022-12-11T15:28:33;10.57;;;7.55;;
40373;SDS011;26079;45.958;12.492;2022-12-11T15:31:02;6.70;;;6.00;;
40373;SDS011;26079;45.958;12.492;2022-12-11T15:33:30;32.25;;;28.30;;
40373;SDS011;26079;45.958;12.492;2022-12-11T15:36:00;30.30;;;20.65;;
40373;SDS011;26079;45.958;12.492;2022-12-11T15:38:32;25.38;;;19.30;;
40373;SDS011;26079;45.958;12.492;2022-12-11T15:40:59;22.20;;;16.98;;
40373;SDS011;26079;45.958;12.492;2022-12-11T15:43:26;21.33;;;15.52;;
40373;SDS011;26079;45.958;12.492;2022-12-11T15:45:53;10.52;;;8.63;;
40373;SDS011;26079;45.958;12.492;2022-12-11T15:48:19;6.93;;;5.78;;
40373;SDS011;26079;45.958;12.492;2022-12-11T15:50:44;10.27;;;7.53;;
40373;SDS011;26079;45.958;12.492;2022-12-11T15:53:10;10.02;;;7.05;;
40373;SDS011;26079;45.958;12.492;2022-12-11T15:55:36;6.40;;;5.45;;
40373;SDS011;26079;45.958;12.492;2022-12-11T15:58:06;9.32;;;6.57;;
40373;SDS011;26079;45.958;12.492;2022-12-11T16:00:37;15.98;;;11.70;;
40373;SDS011;26079;45.958;12.492;2022-12-11T16:03:06;16.63;;;11.77;;
40373;SDS011;26079;45.958;12.492;2022-12-11T16:05:42;14.43;;;10.43;;
40373;SDS011;26079;45.958;12.492;2022-12-11T16:08:11;12.95;;;8.93;;
40373;SDS011;26079;45.958;12.492;2022-12-11T16:10:39;14.10;;;11.45;;
40373;SDS011;26079;45.958;12.492;2022-12-11T16:13:09;22.27;;;15.60;;
40373;SDS011;26079;45.958;12.492;2022-12-11T16:15:36;13.48;;;9.43;;
40373;SDS011;26079;45.958;12.492;2022-12-11T16:18:07;19.15;;;13.25;;
40373;SDS011;26079;45.958;12.492;2022-12-11T16:20:35;16.42;;;11.60;;
40373;SDS011;26079;45.958;12.492;2022-12-11T16:23:03;7.40;;;5.47;;
40373;SDS011;26079;45.958;12.492;2022-12-11T16:25:29;6.15;;;5.60;;
40373;SDS011;26079;45.958;12.492;2022-12-11T16:27:57;5.70;;;4.82;;
40373;SDS011;26079;45.958;12.492;2022-12-11T16:30:24;7.07;;;5.43;;
40373;SDS011;26079;45.958;12.492;2022-12-11T16:32:50;6.97;;;5.55;;
40373;SDS011;26079;45.958;12.492;2022-12-11T16:35:17;8.85;;;6.10;;
40373;SDS011;26079;45.958;12.492;2022-12-11T16:37:43;6.63;;;5.85;;
40373;SDS011;26079;45.958;12.492;2022-12-11T16:40:09;8.50;;;7.38;;